sensor_id;sensor_type;location;lat;lon;timestamp;temperature;humidity
19734;DHT22;10018;51.230;7.860;2023-10-19T00:00:46;10.40;99.90
19734;DHT22;10018;51.230;7.860;2023-10-19T00:03:14;10.40;99.90
19734;DHT22;10018;51.230;7.860;2023-10-19T00:05:43;10.40;99.90
19734;DHT22;10018;51.230;7.860;2023-10-19T00:08:10;10.50;99.90
19734;DHT22;10018;51.230;7.860;2023-10-19T00:10:45;10.40;99.90
19734;DHT22;10018;51.230;7.860;2023-10-19T00:13:14;10.40;99.90
19734;DHT22;10018;51.230;7.860;2023-10-19T00:15:41;10.40;99.90
19734;DHT22;10018;51.230;7.860;2023-10-19T00:18:12;10.40;99.90
19734;DHT22;10018;51.230;7.860;2023-10-19T00:20:44;10.40;99.90
19734;DHT22;10018;51.230;7.860;2023-10-19T00:23:11;10.50;99.90
19734;DHT22;10018;51.230;7.860;2023-10-19T00:25:39;10.50;99.90
19734;DHT22;10018;51.230;7.860;2023-10-19T00:28:07;10.50;99.90
19734;DHT22;10018;51.230;7.860;2023-10-19T00:30:33;10.50;99.90
19734;DHT22;10018;51.230;7.860;2023-10-19T00:33:04;10.50;99.90
19734;DHT22;10018;51.230;7.860;2023-10-19T00:35:33;10.50;99.90
19734;DHT22;10018;51.230;7.860;2023-10-19T00:38:02;10.50;99.90
19734;DHT22;10018;51.230;7.860;2023-10-19T00:41:04;10.50;99.90
19734;DHT22;10018;51.230;7.860;2023-10-19T00:43:41;10.50;99.90
19734;DHT22;10018;51.230;7.860;2023-10-19T00:46:13;10.50;99.90
19734;DHT22;10018;51.230;7.860;2023-10-19T00:48:56;10.50;99.90
19734;DHT22;10018;51.230;7.860;2023-10-19T00:51:27;10.60;99.90
19734;DHT22;10018;51.230;7.860;2023-10-19T00:54:20;10.60;99.90
19734;DHT22;10018;51.230;7.860;2023-10-19T00:56:53;10.60;99.90
19734;DHT22;10018;51.230;7.860;2023-10-19T00:59:22;10.60;99.90
19734;DHT22;10018;51.230;7.860;2023-10-19T01:01:53;10.60;99.90
19734;DHT22;10018;51.230;7.860;2023-10-19T01:04:20;10.60;99.90
19734;DHT22;10018;51.230;7.860;2023-10-19T01:06:51;10.60;99.90
19734;DHT22;10018;51.230;7.860;2023-10-19T01:09:42;10.60;99.90
19734;DHT22;10018;51.230;7.860;2023-10-19T01:12:09;10.60;99.90
19734;DHT22;10018;51.230;7.860;2023-10-19T01:17:47;10.70;99.90
19734;DHT22;10018;51.230;7.860;2023-10-19T01:23:04;10.70;99.90
19734;DHT22;10018;51.230;7.860;2023-10-19T01:25:47;10.70;99.90
19734;DHT22;10018;51.230;7.860;2023-10-19T01:28:13;10.70;99.90
19734;DHT22;10018;51.230;7.860;2023-10-19T01:30:42;10.70;99.90
19734;DHT22;10018;51.230;7.860;2023-10-19T01:33:09;10.70;99.90
19734;DHT22;10018;51.230;7.860;2023-10-19T01:35:39;10.80;99.90
19734;DHT22;10018;51.230;7.860;2023-10-19T01:38:23;10.80;99.90
19734;DHT22;10018;51.230;7.860;2023-10-19T01:40:49;10.90;99.90
19734;DHT22;10018;51.230;7.860;2023-10-19T01:43:17;10.90;99.90
19734;DHT22;10018;51.230;7.860;2023-10-19T01:45:52;11.00;99.90
19734;DHT22;10018;51.230;7.860;2023-10-19T01:48:20;11.10;99.90
19734;DHT22;10018;51.230;7.860;2023-10-19T01:50:48;11.20;99.90
19734;DHT22;10018;51.230;7.860;2023-10-19T01:53:16;11.20;99.90
19734;DHT22;10018;51.230;7.860;2023-10-19T01:55:44;11.20;99.90
19734;DHT22;10018;51.230;7.860;2023-10-19T01:58:10;11.20;99.90
19734;DHT22;10018;51.230;7.860;2023-10-19T02:00:36;11.30;99.90
19734;DHT22;10018;51.230;7.860;2023-10-19T02:03:08;11.30;99.90
19734;DHT22;10018;51.230;7.860;2023-10-19T02:05:34;11.30;99.90
19734;DHT22;10018;51.230;7.860;2023-10-19T02:08:08;11.40;99.90
19734;DHT22;10018;51.230;7.860;2023-10-19T02:10:34;11.30;99.90
19734;DHT22;10018;51.230;7.860;2023-10-19T02:13:01;11.40;99.90
19734;DHT22;10018;51.230;7.860;2023-10-19T02:15:34;11.40;99.90
19734;DHT22;10018;51.230;7.860;2023-10-19T02:18:02;11.50;99.90
19734;DHT22;10018;51.230;7.860;2023-10-19T02:20:28;11.50;99.90
19734;DHT22;10018;51.230;7.860;2023-10-19T02:22:55;11.60;99.90
19734;DHT22;10018;51.230;7.860;2023-10-19T02:25:23;11.60;99.90
19734;DHT22;10018;51.230;7.860;2023-10-19T02:27:50;11.60;99.90
19734;DHT22;10018;51.230;7.860;2023-10-19T02:30:17;11.60;99.90
19734;DHT22;10018;51.230;7.860;2023-10-19T02:32:45;11.60;99.90
19734;DHT22;10018;51.230;7.860;2023-10-19T02:35:13;11.70;99.90
19734;DHT22;10018;51.230;7.860;2023-10-19T02:37:41;11.70;99.90
19734;DHT22;10018;51.230;7.860;2023-10-19T02:40:07;11.70;99.90
19734;DHT22;10018;51.230;7.860;2023-10-19T02:42:40;11.70;99.90
19734;DHT22;10018;51.230;7.860;2023-10-19T02:45:07;11.80;99.90
19734;DHT22;10018;51.230;7.860;2023-10-19T02:47:33;11.80;99.90
19734;DHT22;10018;51.230;7.860;2023-10-19T02:49:58;11.80;99.90
19734;DHT22;10018;51.230;7.860;2023-10-19T02:52:24;11.80;99.90
19734;DHT22;10018;51.230;7.860;2023-10-19T02:54:49;11.80;99.90
19734;DHT22;10018;51.230;7.860;2023-10-19T02:57:15;11.80;99.90
19734;DHT22;10018;51.230;7.860;2023-10-19T02:59:41;11.90;99.90
19734;DHT22;10018;51.230;7.860;2023-10-19T03:02:06;11.80;99.90
19734;DHT22;10018;51.230;7.860;2023-10-19T03:04:32;11.80;99.90
19734;DHT22;10018;51.230;7.860;2023-10-19T03:07:02;11.90;99.90
19734;DHT22;10018;51.230;7.860;2023-10-19T03:09:28;11.90;99.90
19734;DHT22;10018;51.230;7.860;2023-10-19T03:11:54;11.90;99.90
19734;DHT22;10018;51.230;7.860;2023-10-19T03:14:21;11.90;99.90
19734;DHT22;10018;51.230;7.860;2023-10-19T03:16:50;11.90;99.90
19734;DHT22;10018;51.230;7.860;2023-10-19T03:19:20;12.00;99.90
19734;DHT22;10018;51.230;7.860;2023-10-19T03:21:45;12.00;99.90
19734;DHT22;10018;51.230;7.860;2023-10-19T03:24:18;12.00;99.90
19734;DHT22;10018;51.230;7.860;2023-10-19T03:27:04;12.00;99.90
19734;DHT22;10018;51.230;7.860;2023-10-19T03:29:41;11.90;99.90
19734;DHT22;10018;51.230;7.860;2023-10-19T03:32:11;11.90;99.90
19734;DHT22;10018;51.230;7.860;2023-10-19T03:34:38;11.90;99.90
19734;DHT22;10018;51.230;7.860;2023-10-19T03:37:04;11.90;99.90
19734;DHT22;10018;51.230;7.860;2023-10-19T03:39:37;11.90;99.90
19734;DHT22;10018;51.230;7.860;2023-10-19T03:42:04;11.90;99.90
19734;DHT22;10018;51.230;7.860;2023-10-19T03:44:32;11.90;99.90
19734;DHT22;10018;51.230;7.860;2023-10-19T03:47:18;12.00;99.90
19734;DHT22;10018;51.230;7.860;2023-10-19T03:49:45;12.10;99.90
19734;DHT22;10018;51.230;7.860;2023-10-19T03:52:12;12.10;99.90
19734;DHT22;10018;51.230;7.860;2023-10-19T03:54:39;12.20;99.90
19734;DHT22;10018;51.230;7.860;2023-10-19T03:57:05;12.20;99.90
19734;DHT22;10018;51.230;7.860;2023-10-19T03:59:51;12.20;99.90
19734;DHT22;10018;51.230;7.860;2023-10-19T04:02:25;12.20;99.90
19734;DHT22;10018;51.230;7.860;2023-10-19T04:04:54;12.20;99.90
19734;DHT22;10018;51.230;7.860;2023-10-19T04:07:21;12.30;99.90
19734;DHT22;10018;51.230;7.860;2023-10-19T04:09:50;12.20;99.90
19734;DHT22;10018;51.230;7.860;2023-10-19T04:12:38;12.30;99.90
19734;DHT22;10018;51.230;7.860;2023-10-19T04:15:07;12.40;99.90
19734;DHT22;10018;51.230;7.860;2023-10-19T04:17:39;12.40;99.90
19734;DHT22;10018;51.230;7.860;2023-10-19T04:20:07;12.40;99.90
19734;DHT22;10018;51.230;7.860;2023-10-19T04:22:48;12.40;99.90
19734;DHT22;10018;51.230;7.860;2023-10-19T04:25:19;12.30;99.90
19734;DHT22;10018;51.230;7.860;2023-10-19T04:27:48;12.40;99.90
19734;DHT22;10018;51.230;7.860;2023-10-19T04:30:15;12.40;99.90
19734;DHT22;10018;51.230;7.860;2023-10-19T04:32:51;12.40;99.90
19734;DHT22;10018;51.230;7.860;2023-10-19T04:35:21;12.40;99.90
19734;DHT22;10018;51.230;7.860;2023-10-19T04:37:50;12.40;99.90
19734;DHT22;10018;51.230;7.860;2023-10-19T04:40:17;12.40;99.90
19734;DHT22;10018;51.230;7.860;2023-10-19T04:42:43;12.40;99.90
19734;DHT22;10018;51.230;7.860;2023-10-19T04:45:09;12.40;99.90
19734;DHT22;10018;51.230;7.860;2023-10-19T04:47:37;12.40;99.90
19734;DHT22;10018;51.230;7.860;2023-10-19T04:50:03;12.50;99.90
19734;DHT22;10018;51.230;7.860;2023-10-19T04:52:29;12.60;99.90
19734;DHT22;10018;51.230;7.860;2023-10-19T04:54:55;12.50;99.90
19734;DHT22;10018;51.230;7.860;2023-10-19T04:57:21;12.50;99.90
19734;DHT22;10018;51.230;7.860;2023-10-19T04:59:47;12.50;99.90
19734;DHT22;10018;51.230;7.860;2023-10-19T05:02:13;12.60;99.90
19734;DHT22;10018;51.230;7.860;2023-10-19T05:04:38;12.60;99.90
19734;DHT22;10018;51.230;7.860;2023-10-19T05:07:04;12.60;99.90
19734;DHT22;10018;51.230;7.860;2023-10-19T05:09:31;12.60;99.90
19734;DHT22;10018;51.230;7.860;2023-10-19T05:11:57;12.60;99.90
19734;DHT22;10018;51.230;7.860;2023-10-19T05:14:22;12.60;99.90
19734;DHT22;10018;51.230;7.860;2023-10-19T05:16:48;12.60;99.90
19734;DHT22;10018;51.230;7.860;2023-10-19T05:19:14;12.60;99.90
19734;DHT22;10018;51.230;7.860;2023-10-19T05:21:40;12.60;99.90
19734;DHT22;10018;51.230;7.860;2023-10-19T05:24:06;12.60;99.90
19734;DHT22;10018;51.230;7.860;2023-10-19T05:26:35;12.70;99.90
19734;DHT22;10018;51.230;7.860;2023-10-19T05:29:00;12.70;99.90
19734;DHT22;10018;51.230;7.860;2023-10-19T05:31:26;12.60;99.90
19734;DHT22;10018;51.230;7.860;2023-10-19T05:33:53;12.70;99.90
19734;DHT22;10018;51.230;7.860;2023-10-19T05:36:21;12.70;99.90
19734;DHT22;10018;51.230;7.860;2023-10-19T05:38:47;12.70;99.90
19734;DHT22;10018;51.230;7.860;2023-10-19T05:41:12;12.70;99.90
19734;DHT22;10018;51.230;7.860;2023-10-19T05:43:38;12.80;99.90
19734;DHT22;10018;51.230;7.860;2023-10-19T05:46:04;12.70;99.90
19734;DHT22;10018;51.230;7.860;2023-10-19T05:48:30;12.70;99.90
19734;DHT22;10018;51.230;7.860;2023-10-19T05:50:56;12.70;99.90
19734;DHT22;10018;51.230;7.860;2023-10-19T05:53:22;12.70;99.90
19734;DHT22;10018;51.230;7.860;2023-10-19T05:55:48;12.70;99.90
19734;DHT22;10018;51.230;7.860;2023-10-19T05:58:15;12.60;99.90
19734;DHT22;10018;51.230;7.860;2023-10-19T06:00:41;12.60;99.90
19734;DHT22;10018;51.230;7.860;2023-10-19T06:03:09;12.60;99.90
19734;DHT22;10018;51.230;7.860;2023-10-19T06:05:35;12.60;99.90
19734;DHT22;10018;51.230;7.860;2023-10-19T06:08:01;12.60;99.90
19734;DHT22;10018;51.230;7.860;2023-10-19T06:10:28;12.60;99.90
19734;DHT22;10018;51.230;7.860;2023-10-19T06:12:53;12.70;99.90
19734;DHT22;10018;51.230;7.860;2023-10-19T06:15:21;12.70;99.90
19734;DHT22;10018;51.230;7.860;2023-10-19T06:17:49;12.70;99.90
19734;DHT22;10018;51.230;7.860;2023-10-19T06:20:15;12.80;99.90
19734;DHT22;10018;51.230;7.860;2023-10-19T06:22:51;12.80;99.90
19734;DHT22;10018;51.230;7.860;2023-10-19T06:25:21;12.80;99.90
19734;DHT22;10018;51.230;7.860;2023-10-19T06:27:48;12.80;99.90
19734;DHT22;10018;51.230;7.860;2023-10-19T06:30:15;12.80;99.90
19734;DHT22;10018;51.230;7.860;2023-10-19T06:32:49;12.80;99.90
19734;DHT22;10018;51.230;7.860;2023-10-19T06:35:16;12.80;99.90
19734;DHT22;10018;51.230;7.860;2023-10-19T06:37:43;12.80;99.90
19734;DHT22;10018;51.230;7.860;2023-10-19T06:40:09;12.80;99.90
19734;DHT22;10018;51.230;7.860;2023-10-19T06:42:37;12.80;99.90
19734;DHT22;10018;51.230;7.860;2023-10-19T06:45:05;12.80;99.90
19734;DHT22;10018;51.230;7.860;2023-10-19T06:47:33;12.80;99.90
19734;DHT22;10018;51.230;7.860;2023-10-19T06:50:04;12.80;99.90
19734;DHT22;10018;51.230;7.860;2023-10-19T06:52:30;12.80;99.90
19734;DHT22;10018;51.230;7.860;2023-10-19T06:54:58;12.70;99.90
19734;DHT22;10018;51.230;7.860;2023-10-19T06:57:23;12.80;99.90
19734;DHT22;10018;51.230;7.860;2023-10-19T06:59:49;12.80;99.90
19734;DHT22;10018;51.230;7.860;2023-10-19T07:02:14;12.80;99.90
19734;DHT22;10018;51.230;7.860;2023-10-19T07:04:41;12.80;99.90
19734;DHT22;10018;51.230;7.860;2023-10-19T07:07:07;12.80;99.90
19734;DHT22;10018;51.230;7.860;2023-10-19T07:09:34;12.90;99.90
19734;DHT22;10018;51.230;7.860;2023-10-19T07:12:00;12.90;99.90
19734;DHT22;10018;51.230;7.860;2023-10-19T07:14:26;13.00;99.90
19734;DHT22;10018;51.230;7.860;2023-10-19T07:16:52;13.00;99.90
19734;DHT22;10018;51.230;7.860;2023-10-19T07:19:18;13.00;99.90
19734;DHT22;10018;51.230;7.860;2023-10-19T07:21:44;13.00;99.90
19734;DHT22;10018;51.230;7.860;2023-10-19T07:24:17;13.00;99.90
19734;DHT22;10018;51.230;7.860;2023-10-19T07:26:44;13.10;99.90
19734;DHT22;10018;51.230;7.860;2023-10-19T07:29:20;13.10;99.90
19734;DHT22;10018;51.230;7.860;2023-10-19T07:31:45;13.10;99.90
19734;DHT22;10018;51.230;7.860;2023-10-19T07:34:13;13.30;99.90
19734;DHT22;10018;51.230;7.860;2023-10-19T07:36:41;13.30;99.90
19734;DHT22;10018;51.230;7.860;2023-10-19T07:39:08;13.30;99.90
19734;DHT22;10018;51.230;7.860;2023-10-19T07:41:40;13.40;99.90
19734;DHT22;10018;51.230;7.860;2023-10-19T07:44:05;13.50;99.90
19734;DHT22;10018;51.230;7.860;2023-10-19T07:46:31;13.50;99.90
19734;DHT22;10018;51.230;7.860;2023-10-19T07:48:57;13.50;99.90
19734;DHT22;10018;51.230;7.860;2023-10-19T07:51:25;13.60;99.90
19734;DHT22;10018;51.230;7.860;2023-10-19T07:53:50;13.60;99.90
19734;DHT22;10018;51.230;7.860;2023-10-19T07:56:17;13.70;99.90
19734;DHT22;10018;51.230;7.860;2023-10-19T07:58:42;13.70;99.90
19734;DHT22;10018;51.230;7.860;2023-10-19T08:01:08;13.70;99.90
19734;DHT22;10018;51.230;7.860;2023-10-19T08:03:34;13.80;99.90
19734;DHT22;10018;51.230;7.860;2023-10-19T08:06:00;13.80;99.90
19734;DHT22;10018;51.230;7.860;2023-10-19T08:08:28;13.90;99.90
19734;DHT22;10018;51.230;7.860;2023-10-19T08:10:59;13.90;99.90
19734;DHT22;10018;51.230;7.860;2023-10-19T08:13:26;14.00;99.90
19734;DHT22;10018;51.230;7.860;2023-10-19T08:15:54;14.00;99.90
19734;DHT22;10018;51.230;7.860;2023-10-19T08:18:20;14.00;99.90
19734;DHT22;10018;51.230;7.860;2023-10-19T08:20:46;14.10;99.90
19734;DHT22;10018;51.230;7.860;2023-10-19T08:23:12;14.10;99.90
19734;DHT22;10018;51.230;7.860;2023-10-19T08:25:42;14.20;99.90
19734;DHT22;10018;51.230;7.860;2023-10-19T08:28:09;14.20;99.90
19734;DHT22;10018;51.230;7.860;2023-10-19T08:30:36;14.40;99.90
19734;DHT22;10018;51.230;7.860;2023-10-19T08:33:02;14.40;99.90
19734;DHT22;10018;51.230;7.860;2023-10-19T08:35:28;14.50;99.90
19734;DHT22;10018;51.230;7.860;2023-10-19T08:37:55;14.50;99.90
19734;DHT22;10018;51.230;7.860;2023-10-19T08:40:26;14.60;99.90
19734;DHT22;10018;51.230;7.860;2023-10-19T08:42:52;14.70;99.90
19734;DHT22;10018;51.230;7.860;2023-10-19T08:45:19;14.70;99.90
19734;DHT22;10018;51.230;7.860;2023-10-19T08:50:15;14.90;99.90
19734;DHT22;10018;51.230;7.860;2023-10-19T08:52:41;14.90;99.90
19734;DHT22;10018;51.230;7.860;2023-10-19T08:55:08;14.90;99.90
19734;DHT22;10018;51.230;7.860;2023-10-19T08:57:37;15.00;99.90
19734;DHT22;10018;51.230;7.860;2023-10-19T09:00:04;15.00;99.90
19734;DHT22;10018;51.230;7.860;2023-10-19T09:02:32;15.10;99.90
19734;DHT22;10018;51.230;7.860;2023-10-19T09:04:58;15.10;99.90
19734;DHT22;10018;51.230;7.860;2023-10-19T09:07:27;15.10;99.90
19734;DHT22;10018;51.230;7.860;2023-10-19T09:09:56;15.20;99.90
19734;DHT22;10018;51.230;7.860;2023-10-19T09:12:22;15.30;99.90
19734;DHT22;10018;51.230;7.860;2023-10-19T09:14:48;15.30;99.90
19734;DHT22;10018;51.230;7.860;2023-10-19T09:17:15;15.40;99.90
19734;DHT22;10018;51.230;7.860;2023-10-19T09:19:46;15.40;99.90
19734;DHT22;10018;51.230;7.860;2023-10-19T09:22:17;15.40;99.90
19734;DHT22;10018;51.230;7.860;2023-10-19T09:24:51;15.50;99.90
19734;DHT22;10018;51.230;7.860;2023-10-19T09:27:19;15.50;99.90
19734;DHT22;10018;51.230;7.860;2023-10-19T09:29:45;15.60;99.90
19734;DHT22;10018;51.230;7.860;2023-10-19T09:32:11;15.60;99.90
19734;DHT22;10018;51.230;7.860;2023-10-19T09:34:39;15.70;99.90
19734;DHT22;10018;51.230;7.860;2023-10-19T09:37:11;15.70;99.90
19734;DHT22;10018;51.230;7.860;2023-10-19T09:39:38;15.80;99.90
19734;DHT22;10018;51.230;7.860;2023-10-19T09:42:09;15.90;99.90
19734;DHT22;10018;51.230;7.860;2023-10-19T09:44:44;16.10;99.90
19734;DHT22;10018;51.230;7.860;2023-10-19T09:47:17;16.20;99.90
19734;DHT22;10018;51.230;7.860;2023-10-19T09:49:47;16.30;99.90
19734;DHT22;10018;51.230;7.860;2023-10-19T09:52:18;16.40;99.90
19734;DHT22;10018;51.230;7.860;2023-10-19T09:55:14;16.40;99.90
19734;DHT22;10018;51.230;7.860;2023-10-19T09:57:53;16.40;99.90
19734;DHT22;10018;51.230;7.860;2023-10-19T10:00:20;16.40;99.90
19734;DHT22;10018;51.230;7.860;2023-10-19T10:02:49;16.40;99.90
19734;DHT22;10018;51.230;7.860;2023-10-19T10:10:52;16.60;99.90
19734;DHT22;10018;51.230;7.860;2023-10-19T10:15:54;16.90;99.90
19734;DHT22;10018;51.230;7.860;2023-10-19T10:18:20;16.90;99.90
19734;DHT22;10018;51.230;7.860;2023-10-19T10:20:45;17.00;99.90
19734;DHT22;10018;51.230;7.860;2023-10-19T10:23:24;17.00;99.90
19734;DHT22;10018;51.230;7.860;2023-10-19T10:25:58;17.00;99.90
19734;DHT22;10018;51.230;7.860;2023-10-19T10:28:24;17.10;99.90
19734;DHT22;10018;51.230;7.860;2023-10-19T10:33:45;17.40;99.90
19734;DHT22;10018;51.230;7.860;2023-10-19T10:36:13;17.50;99.90
19734;DHT22;10018;51.230;7.860;2023-10-19T10:38:41;17.70;99.90
19734;DHT22;10018;51.230;7.860;2023-10-19T10:41:07;17.60;99.90
19734;DHT22;10018;51.230;7.860;2023-10-19T10:43:52;17.50;99.90
19734;DHT22;10018;51.230;7.860;2023-10-19T10:46:19;17.30;99.90
19734;DHT22;10018;51.230;7.860;2023-10-19T10:48:46;17.40;99.90
19734;DHT22;10018;51.230;7.860;2023-10-19T10:51:26;17.40;99.90
19734;DHT22;10018;51.230;7.860;2023-10-19T10:53:54;17.50;99.90
19734;DHT22;10018;51.230;7.860;2023-10-19T10:56:22;17.50;99.90
19734;DHT22;10018;51.230;7.860;2023-10-19T10:58:48;17.60;99.90
19734;DHT22;10018;51.230;7.860;2023-10-19T11:01:15;17.80;99.90
19734;DHT22;10018;51.230;7.860;2023-10-19T11:03:43;17.80;99.90
19734;DHT22;10018;51.230;7.860;2023-10-19T11:06:10;17.80;99.90
19734;DHT22;10018;51.230;7.860;2023-10-19T11:08:37;17.80;99.90
19734;DHT22;10018;51.230;7.860;2023-10-19T11:11:07;17.80;99.90
19734;DHT22;10018;51.230;7.860;2023-10-19T11:13:36;17.80;99.90
19734;DHT22;10018;51.230;7.860;2023-10-19T11:16:04;17.80;99.90
19734;DHT22;10018;51.230;7.860;2023-10-19T11:18:36;17.80;99.90
19734;DHT22;10018;51.230;7.860;2023-10-19T11:21:05;17.80;99.90
19734;DHT22;10018;51.230;7.860;2023-10-19T11:23:48;17.90;99.90
19734;DHT22;10018;51.230;7.860;2023-10-19T11:26:17;18.10;99.90
19734;DHT22;10018;51.230;7.860;2023-10-19T11:28:43;18.30;99.90
19734;DHT22;10018;51.230;7.860;2023-10-19T11:31:19;18.50;99.90
19734;DHT22;10018;51.230;7.860;2023-10-19T11:33:48;18.50;99.90
19734;DHT22;10018;51.230;7.860;2023-10-19T11:36:15;18.60;99.90
19734;DHT22;10018;51.230;7.860;2023-10-19T11:38:42;18.40;99.90
19734;DHT22;10018;51.230;7.860;2023-10-19T11:41:11;18.40;99.90
19734;DHT22;10018;51.230;7.860;2023-10-19T11:43:46;18.30;99.90
19734;DHT22;10018;51.230;7.860;2023-10-19T11:46:12;18.30;99.90
19734;DHT22;10018;51.230;7.860;2023-10-19T11:48:39;18.40;99.90
19734;DHT22;10018;51.230;7.860;2023-10-19T11:51:05;18.30;99.90
19734;DHT22;10018;51.230;7.860;2023-10-19T11:53:35;18.10;99.90
19734;DHT22;10018;51.230;7.860;2023-10-19T11:56:03;18.00;99.90
19734;DHT22;10018;51.230;7.860;2023-10-19T11:58:30;17.80;99.90
19734;DHT22;10018;51.230;7.860;2023-10-19T12:00:58;17.70;99.90
19734;DHT22;10018;51.230;7.860;2023-10-19T12:03:24;17.70;99.90
19734;DHT22;10018;51.230;7.860;2023-10-19T12:05:51;17.70;99.90
19734;DHT22;10018;51.230;7.860;2023-10-19T12:08:18;17.60;99.90
19734;DHT22;10018;51.230;7.860;2023-10-19T12:10:44;17.60;99.90
19734;DHT22;10018;51.230;7.860;2023-10-19T12:13:09;17.60;99.90
19734;DHT22;10018;51.230;7.860;2023-10-19T12:15:37;17.70;99.90
19734;DHT22;10018;51.230;7.860;2023-10-19T12:18:03;17.60;99.90
19734;DHT22;10018;51.230;7.860;2023-10-19T12:20:29;17.60;99.90
19734;DHT22;10018;51.230;7.860;2023-10-19T12:22:58;17.60;99.90
19734;DHT22;10018;51.230;7.860;2023-10-19T12:25:24;17.60;99.90
19734;DHT22;10018;51.230;7.860;2023-10-19T12:27:57;17.60;99.90
19734;DHT22;10018;51.230;7.860;2023-10-19T12:30:23;17.60;99.90
19734;DHT22;10018;51.230;7.860;2023-10-19T12:32:52;17.60;99.90
19734;DHT22;10018;51.230;7.860;2023-10-19T12:35:18;17.60;99.90
19734;DHT22;10018;51.230;7.860;2023-10-19T12:37:50;17.60;99.90
19734;DHT22;10018;51.230;7.860;2023-10-19T12:40:18;17.50;99.90
19734;DHT22;10018;51.230;7.860;2023-10-19T12:42:56;17.40;99.90
19734;DHT22;10018;51.230;7.860;2023-10-19T12:45:26;17.30;99.90
19734;DHT22;10018;51.230;7.860;2023-10-19T12:47:51;17.30;99.90
19734;DHT22;10018;51.230;7.860;2023-10-19T12:50:21;17.30;99.90
19734;DHT22;10018;51.230;7.860;2023-10-19T12:52:49;17.30;99.90
19734;DHT22;10018;51.230;7.860;2023-10-19T12:55:16;17.30;99.90
19734;DHT22;10018;51.230;7.860;2023-10-19T12:57:42;17.20;99.90
19734;DHT22;10018;51.230;7.860;2023-10-19T13:00:08;17.20;99.90
19734;DHT22;10018;51.230;7.860;2023-10-19T13:02:53;17.10;99.90
19734;DHT22;10018;51.230;7.860;2023-10-19T13:05:38;17.10;99.90
19734;DHT22;10018;51.230;7.860;2023-10-19T13:08:15;17.00;99.90
19734;DHT22;10018;51.230;7.860;2023-10-19T13:10:45;16.90;99.90
19734;DHT22;10018;51.230;7.860;2023-10-19T13:13:13;16.80;99.90
19734;DHT22;10018;51.230;7.860;2023-10-19T13:15:41;16.80;99.90
19734;DHT22;10018;51.230;7.860;2023-10-19T13:18:08;16.80;99.90
19734;DHT22;10018;51.230;7.860;2023-10-19T13:20:38;16.80;99.90
19734;DHT22;10018;51.230;7.860;2023-10-19T13:23:06;16.70;99.90
19734;DHT22;10018;51.230;7.860;2023-10-19T13:25:33;16.60;99.90
19734;DHT22;10018;51.230;7.860;2023-10-19T13:28:13;16.60;99.90
19734;DHT22;10018;51.230;7.860;2023-10-19T13:30:52;16.50;99.90
19734;DHT22;10018;51.230;7.860;2023-10-19T13:33:23;16.50;99.90
19734;DHT22;10018;51.230;7.860;2023-10-19T13:35:53;16.50;99.90
19734;DHT22;10018;51.230;7.860;2023-10-19T13:38:19;16.40;99.90
19734;DHT22;10018;51.230;7.860;2023-10-19T13:40:48;16.40;99.90
19734;DHT22;10018;51.230;7.860;2023-10-19T13:43:16;16.40;99.90
19734;DHT22;10018;51.230;7.860;2023-10-19T13:45:44;16.40;99.90
19734;DHT22;10018;51.230;7.860;2023-10-19T13:48:11;16.40;99.90
19734;DHT22;10018;51.230;7.860;2023-10-19T13:50:44;16.30;99.90
19734;DHT22;10018;51.230;7.860;2023-10-19T13:53:14;16.40;99.90
19734;DHT22;10018;51.230;7.860;2023-10-19T13:55:41;16.40;99.90
19734;DHT22;10018;51.230;7.860;2023-10-19T13:58:06;16.40;99.90
19734;DHT22;10018;51.230;7.860;2023-10-19T14:00:32;16.40;99.90
19734;DHT22;10018;51.230;7.860;2023-10-19T14:03:09;16.50;99.90
19734;DHT22;10018;51.230;7.860;2023-10-19T14:05:37;16.40;99.90
19734;DHT22;10018;51.230;7.860;2023-10-19T14:08:06;16.40;99.90
19734;DHT22;10018;51.230;7.860;2023-10-19T14:10:33;16.40;99.90
19734;DHT22;10018;51.230;7.860;2023-10-19T14:12:59;16.40;99.90
19734;DHT22;10018;51.230;7.860;2023-10-19T14:15:25;16.40;99.90
19734;DHT22;10018;51.230;7.860;2023-10-19T14:17:56;16.30;99.90
19734;DHT22;10018;51.230;7.860;2023-10-19T14:20:23;16.30;99.90
19734;DHT22;10018;51.230;7.860;2023-10-19T14:22:49;16.40;99.90
19734;DHT22;10018;51.230;7.860;2023-10-19T14:25:16;16.40;99.90
19734;DHT22;10018;51.230;7.860;2023-10-19T14:27:46;16.30;99.90
19734;DHT22;10018;51.230;7.860;2023-10-19T14:30:17;16.30;99.90
19734;DHT22;10018;51.230;7.860;2023-10-19T14:32:45;16.30;99.90
19734;DHT22;10018;51.230;7.860;2023-10-19T14:35:13;16.30;99.90
19734;DHT22;10018;51.230;7.860;2023-10-19T14:37:41;16.30;99.90
19734;DHT22;10018;51.230;7.860;2023-10-19T14:40:17;16.30;99.90
19734;DHT22;10018;51.230;7.860;2023-10-19T14:42:45;16.30;99.90
19734;DHT22;10018;51.230;7.860;2023-10-19T14:45:12;16.30;99.90
19734;DHT22;10018;51.230;7.860;2023-10-19T14:47:39;16.30;99.90
19734;DHT22;10018;51.230;7.860;2023-10-19T14:50:12;16.30;99.90
19734;DHT22;10018;51.230;7.860;2023-10-19T14:52:41;16.20;99.90
19734;DHT22;10018;51.230;7.860;2023-10-19T14:55:09;16.10;99.90
19734;DHT22;10018;51.230;7.860;2023-10-19T14:57:36;16.10;99.90
19734;DHT22;10018;51.230;7.860;2023-10-19T15:00:06;16.10;99.90
19734;DHT22;10018;51.230;7.860;2023-10-19T15:02:56;16.10;99.90
19734;DHT22;10018;51.230;7.860;2023-10-19T15:05:27;16.00;99.90
19734;DHT22;10018;51.230;7.860;2023-10-19T15:07:56;16.10;99.90
19734;DHT22;10018;51.230;7.860;2023-10-19T15:10:26;16.10;99.90
19734;DHT22;10018;51.230;7.860;2023-10-19T15:12:55;16.10;99.90
19734;DHT22;10018;51.230;7.860;2023-10-19T15:15:24;16.00;99.90
19734;DHT22;10018;51.230;7.860;2023-10-19T15:17:50;16.00;99.90
19734;DHT22;10018;51.230;7.860;2023-10-19T15:20:20;15.90;99.90
19734;DHT22;10018;51.230;7.860;2023-10-19T15:22:46;15.90;99.90
19734;DHT22;10018;51.230;7.860;2023-10-19T15:25:13;15.90;99.90
19734;DHT22;10018;51.230;7.860;2023-10-19T15:27:40;15.90;99.90
19734;DHT22;10018;51.230;7.860;2023-10-19T15:30:08;15.90;99.90
19734;DHT22;10018;51.230;7.860;2023-10-19T15:32:39;15.90;99.90
19734;DHT22;10018;51.230;7.860;2023-10-19T15:35:13;15.80;99.90
19734;DHT22;10018;51.230;7.860;2023-10-19T15:37:40;15.80;99.90
19734;DHT22;10018;51.230;7.860;2023-10-19T15:40:07;15.80;99.90
19734;DHT22;10018;51.230;7.860;2023-10-19T15:42:33;15.80;99.90
19734;DHT22;10018;51.230;7.860;2023-10-19T15:45:01;15.80;99.90
19734;DHT22;10018;51.230;7.860;2023-10-19T15:47:27;15.70;99.90
19734;DHT22;10018;51.230;7.860;2023-10-19T15:49:54;15.70;99.90
19734;DHT22;10018;51.230;7.860;2023-10-19T15:52:26;15.60;99.90
19734;DHT22;10018;51.230;7.860;2023-10-19T15:54:54;15.50;99.90
19734;DHT22;10018;51.230;7.860;2023-10-19T15:57:22;15.60;99.90
19734;DHT22;10018;51.230;7.860;2023-10-19T15:59:48;15.50;99.90